Roxane — 9H9917 — position and weather

sailwx.info

Track history (hours):
 
Tides and Currents Weather Stations Pressure Air Temp Water Temp Dewpoint Dewpoint Depression Visibility Wind Speed Wind Dir Waves Ship Positions

Roxane

Last reported at 2016-Aug-29 12:33 UTC. Time now 2016-Aug-29 13:04 UTC.
Position N 43°32' E 010°15'.

Length 46 m.

Type: Sailing vessel. MMSI: 248548000.

Date/timePositionNaut miles runAvg speedWind from/ knotsBaromVisibWave heightAir tempDewpointWater temp
2016-Aug-29 12:33N 43°32' E 010°15'2 2.0
2016-Aug-29 11:28N 43°33' E 010°18'0 0.0
2016-Aug-29 10:31N 43°33' E 010°18'0 0.0
2016-Aug-29 09:25N 43°33' E 010°18'0 0.0
2016-Aug-29 08:31N 43°33' E 010°18'0 0.0
2016-Aug-29 07:28N 43°33' E 010°18'0 0.0
2016-Aug-29 06:31N 43°33' E 010°18'0 0.0
2016-Aug-29 05:31N 43°33' E 010°18'0 0.0
2016-Aug-29 04:28N 43°33' E 010°18'0 0.0
2016-Aug-29 03:31N 43°33' E 010°18'0 0.0
2016-Aug-29 02:31N 43°33' E 010°18'0 0.0
2016-Aug-29 01:31N 43°33' E 010°18'0 0.0
2016-Aug-29 00:28N 43°33' E 010°18'0 0.0
2016-Aug-28 23:31N 43°33' E 010°18'0 0.0
2016-Aug-28 22:25N 43°33' E 010°18'0 0.0
2016-Aug-28 21:31N 43°33' E 010°18'0 0.0
2016-Aug-28 20:31N 43°33' E 010°18'0 0.0
2016-Aug-28 19:31N 43°33' E 010°18'0 0.0
2016-Aug-28 18:31N 43°33' E 010°18'0 0.0
2016-Aug-28 17:31N 43°33' E 010°18'0 0.0
2016-Aug-28 16:31N 43°33' E 010°18'0 0.0
2016-Aug-28 15:31N 43°33' E 010°18'0 0.0
2016-Aug-28 14:31N 43°33' E 010°18'0 0.0
2016-Aug-28 13:31N 43°33' E 010°18'0 0.0
2016-Aug-28 12:31N 43°33' E 010°18'0 0.0
2016-Aug-28 11:31N 43°33' E 010°18'0 0.0
2016-Aug-28 10:28N 43°33' E 010°18'0 0.0
2016-Aug-28 09:31N 43°33' E 010°18'0 0.0
2016-Aug-28 08:28N 43°33' E 010°18'0 0.0
2016-Aug-28 07:31N 43°33' E 010°18'0 0.0
2016-Aug-28 06:25N 43°33' E 010°18'0 0.0
2016-Aug-28 05:31N 43°33' E 010°18'0 0.0
2016-Aug-28 04:28N 43°33' E 010°18'0 0.0
2016-Aug-28 03:31N 43°33' E 010°18'0 0.0
2016-Aug-28 02:31N 43°33' E 010°18'0 0.0
2016-Aug-28 01:31N 43°32' E 010°18'0 0.0
2016-Aug-28 00:31N 43°33' E 010°18'0 0.0
2016-Aug-27 23:31N 43°33' E 010°18'0 0.0
2016-Aug-27 22:31N 43°33' E 010°18'0 0.0
2016-Aug-27 21:31N 43°33' E 010°18'0 0.0
2016-Aug-27 20:28N 43°33' E 010°18'0 0.0
2016-Aug-27 19:31N 43°33' E 010°18'0 0.0
2016-Aug-27 18:31N 43°33' E 010°18'0 0.0
2016-Aug-27 17:28N 43°33' E 010°18'0 0.0
2016-Aug-27 16:28N 43°33' E 010°18'0 0.0
2016-Aug-27 15:31N 43°33' E 010°18'0 0.0
2016-Aug-27 14:31N 43°33' E 010°18'0 0.0
2016-Aug-27 13:31N 43°33' E 010°18'0 0.0
2016-Aug-27 12:28N 43°33' E 010°18'0 0.0
2016-Aug-27 11:31N 43°33' E 010°18'0 0.0
2016-Aug-27 10:31N 43°33' E 010°18'2 2.2
2016-Aug-27 09:33N 43°31' E 010°15'6 6.5
2016-Aug-27 08:33N 43°38' E 010°13'4 3.5
2016-Aug-27 07:32N 43°40' E 010°16'0 0.0
2016-Aug-27 06:32N 43°40' E 010°16'8 4.2
2016-Aug-27 04:33N 43°36' E 010°06'8 8.0
2016-Aug-27 03:33N 43°32' E 009°57'8 8.2
2016-Aug-27 02:33N 43°28' E 009°47'8 8.2
2016-Aug-27 01:33N 43°22' E 009°39'8 8.1
2016-Aug-27 00:33N 43°16' E 009°31'8 8.1
2016-Aug-26 23:33N 43°10' E 009°25'9 8.8
2016-Aug-26 22:33N 43°03' E 009°17'8 8.3
2016-Aug-26 21:33N 42°57' E 009°09'8 8.4
2016-Aug-26 20:33N 42°50' E 009°03'9 9.0
2016-Aug-26 19:33N 42°43' E 008°55'  
Track history (hours):
 
Tides and Currents Weather Stations Pressure Air Temp Water Temp Dewpoint Dewpoint Depression Visibility Wind Speed Wind Dir Waves Ship Positions

Roxane

Last reported at 2016-Aug-29 12:33 UTC. Time now 2016-Aug-29 13:04 UTC.
Position N 43°32' E 010°15'.

Length 46 m.

Type: Sailing vessel. MMSI: 248548000.

Date/timePositionNaut miles runAvg speedWind from/ knotsBaromVisibWave heightAir tempDewpointWater temp
2016-Aug-29 12:33N 43°32' E 010°15'2 2.0
2016-Aug-29 11:28N 43°33' E 010°18'0 0.0
2016-Aug-29 10:31N 43°33' E 010°18'0 0.0
2016-Aug-29 09:25N 43°33' E 010°18'0 0.0
2016-Aug-29 08:31N 43°33' E 010°18'0 0.0
2016-Aug-29 07:28N 43°33' E 010°18'0 0.0
2016-Aug-29 06:31N 43°33' E 010°18'0 0.0
2016-Aug-29 05:31N 43°33' E 010°18'0 0.0
2016-Aug-29 04:28N 43°33' E 010°18'0 0.0
2016-Aug-29 03:31N 43°33' E 010°18'0 0.0
2016-Aug-29 02:31N 43°33' E 010°18'0 0.0
2016-Aug-29 01:31N 43°33' E 010°18'0 0.0
2016-Aug-29 00:28N 43°33' E 010°18'0 0.0
2016-Aug-28 23:31N 43°33' E 010°18'0 0.0
2016-Aug-28 22:25N 43°33' E 010°18'0 0.0
2016-Aug-28 21:31N 43°33' E 010°18'0 0.0
2016-Aug-28 20:31N 43°33' E 010°18'0 0.0
2016-Aug-28 19:31N 43°33' E 010°18'0 0.0
2016-Aug-28 18:31N 43°33' E 010°18'0 0.0
2016-Aug-28 17:31N 43°33' E 010°18'0 0.0
2016-Aug-28 16:31N 43°33' E 010°18'0 0.0
2016-Aug-28 15:31N 43°33' E 010°18'0 0.0
2016-Aug-28 14:31N 43°33' E 010°18'0 0.0
2016-Aug-28 13:31N 43°33' E 010°18'0 0.0
2016-Aug-28 12:31N 43°33' E 010°18'0 0.0
2016-Aug-28 11:31N 43°33' E 010°18'0 0.0
2016-Aug-28 10:28N 43°33' E 010°18'0 0.0
2016-Aug-28 09:31N 43°33' E 010°18'0 0.0
2016-Aug-28 08:28N 43°33' E 010°18'0 0.0
2016-Aug-28 07:31N 43°33' E 010°18'0 0.0
2016-Aug-28 06:25N 43°33' E 010°18'0 0.0
2016-Aug-28 05:31N 43°33' E 010°18'0 0.0
2016-Aug-28 04:28N 43°33' E 010°18'0 0.0
2016-Aug-28 03:31N 43°33' E 010°18'0 0.0
2016-Aug-28 02:31N 43°33' E 010°18'0 0.0
2016-Aug-28 01:31N 43°32' E 010°18'0 0.0
2016-Aug-28 00:31N 43°33' E 010°18'0 0.0
2016-Aug-27 23:31N 43°33' E 010°18'0 0.0
2016-Aug-27 22:31N 43°33' E 010°18'0 0.0
2016-Aug-27 21:31N 43°33' E 010°18'0 0.0
2016-Aug-27 20:28N 43°33' E 010°18'0 0.0
2016-Aug-27 19:31N 43°33' E 010°18'0 0.0
2016-Aug-27 18:31N 43°33' E 010°18'0 0.0
2016-Aug-27 17:28N 43°33' E 010°18'0 0.0
2016-Aug-27 16:28N 43°33' E 010°18'0 0.0
2016-Aug-27 15:31N 43°33' E 010°18'0 0.0
2016-Aug-27 14:31N 43°33' E 010°18'0 0.0
2016-Aug-27 13:31N 43°33' E 010°18'0 0.0
2016-Aug-27 12:28N 43°33' E 010°18'0 0.0
2016-Aug-27 11:31N 43°33' E 010°18'0 0.0
2016-Aug-27 10:31N 43°33' E 010°18'2 2.2
2016-Aug-27 09:33N 43°31' E 010°15'6 6.5
2016-Aug-27 08:33N 43°38' E 010°13'4 3.5
2016-Aug-27 07:32N 43°40' E 010°16'0 0.0
2016-Aug-27 06:32N 43°40' E 010°16'8 4.2
2016-Aug-27 04:33N 43°36' E 010°06'8 8.0
2016-Aug-27 03:33N 43°32' E 009°57'8 8.2
2016-Aug-27 02:33N 43°28' E 009°47'8 8.2
2016-Aug-27 01:33N 43°22' E 009°39'8 8.1
2016-Aug-27 00:33N 43°16' E 009°31'8 8.1
2016-Aug-26 23:33N 43°10' E 009°25'9 8.8
2016-Aug-26 22:33N 43°03' E 009°17'8 8.3
2016-Aug-26 21:33N 42°57' E 009°09'8 8.4
2016-Aug-26 20:33N 42°50' E 009°03'9 9.0
2016-Aug-26 19:33N 42°43' E 008°55'  

Dump ship's entire track history